createdAt,value
2022-08-02T00:00:55.537Z,0.00
2022-08-02T00:01:51.784Z,0.00
2022-08-02T00:02:51.734Z,0.00
2022-08-02T00:03:51.697Z,0.00
2022-08-02T00:04:51.688Z,0.00
2022-08-02T00:05:53.217Z,0.00
2022-08-02T00:06:51.676Z,0.00
2022-08-02T00:07:51.693Z,0.00
2022-08-02T00:08:51.657Z,0.00
2022-08-02T00:09:51.652Z,0.00
2022-08-02T00:10:51.646Z,0.00
2022-08-02T00:11:51.638Z,0.00
2022-08-02T00:12:51.658Z,0.00
2022-08-02T00:13:51.608Z,0.00
2022-08-02T00:14:51.607Z,0.00
2022-08-02T00:15:51.599Z,0.00
2022-08-02T00:16:51.585Z,0.00
2022-08-02T00:17:51.607Z,0.00
2022-08-02T00:18:51.569Z,0.00
2022-08-02T00:19:51.557Z,0.00
2022-08-02T00:20:51.556Z,0.00
2022-08-02T00:21:51.548Z,0.00
2022-08-02T00:22:51.562Z,0.00
2022-08-02T00:24:28.210Z,0.00
2022-08-02T00:24:52.513Z,0.00
2022-08-02T00:25:54.345Z,0.00
2022-08-02T00:26:51.503Z,0.00
2022-08-02T00:27:51.519Z,0.00
2022-08-02T00:28:51.489Z,0.00
2022-08-02T00:29:52.987Z,0.00
2022-08-02T00:30:51.466Z,0.00
2022-08-02T00:31:51.460Z,0.00
2022-08-02T00:32:51.475Z,0.00
2022-08-02T00:34:26.440Z,0.00
2022-08-02T00:34:52.426Z,0.00
2022-08-02T00:35:51.424Z,0.00
2022-08-02T00:36:51.417Z,0.00
2022-08-02T00:37:51.433Z,0.00
2022-08-02T00:38:51.395Z,0.00
2022-08-02T00:39:51.388Z,0.00
2022-08-02T00:40:55.306Z,0.00
2022-08-02T00:41:52.372Z,0.00
2022-08-02T00:42:51.383Z,0.00
2022-08-02T00:43:51.356Z,0.00
2022-08-02T00:44:51.374Z,0.00
2022-08-02T00:46:02.456Z,0.00
2022-08-02T00:46:52.328Z,0.00
2022-08-02T00:47:51.349Z,0.00
2022-08-02T00:48:51.350Z,0.00
2022-08-02T00:49:51.311Z,0.00
2022-08-02T00:50:51.294Z,0.00
2022-08-02T00:51:51.282Z,0.00
2022-08-02T00:52:51.308Z,0.00
2022-08-02T00:53:51.256Z,0.00
2022-08-02T00:54:52.261Z,0.00
2022-08-02T00:55:51.249Z,0.00
2022-08-02T00:56:51.360Z,0.00
2022-08-02T00:57:51.259Z,0.00
2022-08-02T00:58:51.237Z,0.00
2022-08-02T00:59:51.211Z,0.00
2022-08-02T01:00:51.212Z,0.00
2022-08-02T01:01:57.000Z,0.00
2022-08-02T01:02:52.235Z,0.00
2022-08-02T01:03:51.192Z,0.00
2022-08-02T01:04:51.193Z,0.00
2022-08-02T01:06:02.325Z,0.00
2022-08-02T01:06:53.149Z,0.00
2022-08-02T01:07:51.186Z,0.00
2022-08-02T01:08:51.132Z,0.00
2022-08-02T01:09:51.131Z,0.00
2022-08-02T01:10:51.116Z,0.00
2022-08-02T01:11:51.107Z,0.00
2022-08-02T01:12:51.128Z,0.00
2022-08-02T01:13:51.094Z,0.00
2022-08-02T01:14:51.085Z,0.00
2022-08-02T01:15:51.081Z,0.00
2022-08-02T01:16:51.068Z,0.00
2022-08-02T01:17:51.092Z,0.00
2022-08-02T01:18:51.053Z,0.00
2022-08-02T01:19:51.051Z,0.00
2022-08-02T01:20:51.035Z,0.00
2022-08-02T01:21:51.040Z,0.00
2022-08-02T01:23:05.554Z,0.00
2022-08-02T01:23:53.103Z,0.00
2022-08-02T01:24:51.004Z,0.00
2022-08-02T01:25:51.034Z,0.00
2022-08-02T01:26:50.995Z,0.00
2022-08-02T01:27:51.063Z,0.00
2022-08-02T01:28:50.968Z,0.00
2022-08-02T01:29:50.956Z,0.00
2022-08-02T01:30:50.955Z,0.00
2022-08-02T01:31:50.951Z,0.00
2022-08-02T01:32:50.960Z,0.00
2022-08-02T01:33:50.926Z,0.00
2022-08-02T01:34:50.920Z,0.00
2022-08-02T01:35:51.421Z,0.00
2022-08-02T01:36:50.899Z,0.00
2022-08-02T01:37:52.071Z,0.00
2022-08-02T01:38:50.880Z,0.00
2022-08-02T01:39:50.891Z,0.00
2022-08-02T01:40:50.878Z,0.00
2022-08-02T01:41:50.850Z,0.00
2022-08-02T01:42:51.877Z,0.00
2022-08-02T01:43:50.842Z,0.00
2022-08-02T01:44:50.827Z,0.00
2022-08-02T01:45:50.820Z,0.00
2022-08-02T01:46:50.815Z,0.00
2022-08-02T01:47:50.818Z,0.00
2022-08-02T01:48:50.913Z,0.00
2022-08-02T01:49:50.791Z,0.00
2022-08-02T01:50:50.783Z,0.00
2022-08-02T01:51:50.766Z,0.00
2022-08-02T01:52:53.503Z,0.00
2022-08-02T01:53:50.782Z,0.00
2022-08-02T01:54:50.739Z,0.00
2022-08-02T01:55:57.662Z,0.00
2022-08-02T01:56:51.726Z,0.00
2022-08-02T01:57:50.714Z,0.00
2022-08-02T01:58:50.773Z,0.00
2022-08-02T01:59:50.724Z,0.00
2022-08-02T02:00:50.747Z,0.00
2022-08-02T02:01:50.797Z,0.00
2022-08-02T02:02:50.686Z,0.00
2022-08-02T02:03:50.689Z,0.00
2022-08-02T02:04:50.652Z,0.00
2022-08-02T02:05:50.681Z,0.00
2022-08-02T02:06:50.642Z,0.00
2022-08-02T02:07:57.478Z,0.00
2022-08-02T02:09:11.789Z,0.00
2022-08-02T02:09:51.608Z,0.00
2022-08-02T02:10:50.601Z,0.00
2022-08-02T02:12:05.276Z,0.00
2022-08-02T02:12:52.582Z,0.00
2022-08-02T02:13:50.627Z,0.00
2022-08-02T02:14:51.665Z,0.00
2022-08-02T02:15:50.569Z,0.00
2022-08-02T02:16:50.551Z,0.00
2022-08-02T02:18:12.351Z,0.00
2022-08-02T02:18:51.586Z,0.00
2022-08-02T02:19:50.527Z,0.00
2022-08-02T02:20:50.511Z,0.00
2022-08-02T02:21:51.508Z,0.00
2022-08-02T02:22:50.510Z,0.00
2022-08-02T02:23:50.865Z,0.00
2022-08-02T02:24:50.488Z,0.00
2022-08-02T02:25:50.477Z,0.00
2022-08-02T02:26:52.553Z,0.00
2022-08-02T02:27:50.467Z,0.00
2022-08-02T02:28:50.485Z,0.00
2022-08-02T02:29:50.448Z,0.00
2022-08-02T02:30:50.433Z,0.00
2022-08-02T02:31:50.426Z,0.00
2022-08-02T02:32:50.455Z,0.00
2022-08-02T02:33:50.432Z,0.00
2022-08-02T02:34:50.418Z,0.00
2022-08-02T02:35:50.390Z,0.00
2022-08-02T02:36:50.385Z,0.00
2022-08-02T02:37:50.386Z,0.00
2022-08-02T02:38:50.398Z,0.00
2022-08-02T02:39:50.361Z,0.00
2022-08-02T02:40:50.350Z,0.00
2022-08-02T02:41:50.343Z,0.00
2022-08-02T02:42:50.335Z,0.00
2022-08-02T02:43:50.378Z,0.00
2022-08-02T02:44:50.314Z,0.00
2022-08-02T02:45:50.303Z,0.00
2022-08-02T02:46:50.297Z,0.00
2022-08-02T02:47:50.294Z,0.00
2022-08-02T02:48:50.344Z,0.00
2022-08-02T02:49:50.271Z,0.00
2022-08-02T02:50:50.263Z,0.00
2022-08-02T02:51:50.259Z,0.00
2022-08-02T02:52:50.250Z,0.00
2022-08-02T02:54:30.546Z,0.00
2022-08-02T02:54:51.230Z,0.00
2022-08-02T02:56:02.557Z,0.00
2022-08-02T02:56:51.210Z,0.00
2022-08-02T02:57:50.199Z,0.00
2022-08-02T02:58:50.229Z,0.00
2022-08-02T02:59:50.184Z,0.00
2022-08-02T03:00:50.206Z,0.00
2022-08-02T03:01:56.928Z,0.00
2022-08-02T03:02:51.159Z,0.00
2022-08-02T03:03:50.190Z,0.00
2022-08-02T03:04:56.877Z,0.00
2022-08-02T03:05:51.136Z,0.00
2022-08-02T03:06:50.133Z,0.00
2022-08-02T03:07:50.122Z,0.00
2022-08-02T03:08:50.138Z,0.00
2022-08-02T03:09:54.778Z,0.00
2022-08-02T03:10:50.102Z,4.00
2022-08-02T03:11:50.091Z,4.00
2022-08-02T03:12:50.090Z,0.00
2022-08-02T03:13:50.097Z,0.00
2022-08-02T03:14:50.063Z,4.00
2022-08-02T03:15:50.070Z,4.00
2022-08-02T03:16:50.046Z,4.00
2022-08-02T03:17:50.036Z,4.00
2022-08-02T03:18:50.058Z,8.00
2022-08-02T03:19:50.020Z,4.00
2022-08-02T03:20:50.018Z,4.00
2022-08-02T03:21:57.236Z,8.00
2022-08-02T03:22:50.996Z,8.00
2022-08-02T03:23:50.027Z,12.00
2022-08-02T03:24:49.981Z,8.00
2022-08-02T03:25:49.971Z,16.00
2022-08-02T03:26:49.979Z,12.00
2022-08-02T03:27:49.957Z,16.00
2022-08-02T03:28:49.945Z,16.00
2022-08-02T03:29:49.979Z,20.00
2022-08-02T03:30:49.926Z,24.00
2022-08-02T03:31:49.954Z,28.00
2022-08-02T03:32:49.912Z,28.00
2022-08-02T03:33:49.907Z,36.00
2022-08-02T03:34:49.955Z,40.00
2022-08-02T03:35:49.906Z,44.00
2022-08-02T03:36:49.885Z,48.00
2022-08-02T03:37:50.866Z,56.00
2022-08-02T03:38:49.864Z,60.00
2022-08-02T03:39:52.849Z,64.00
2022-08-02T03:40:49.843Z,72.00
2022-08-02T03:41:49.837Z,80.00
2022-08-02T03:42:49.835Z,88.00
2022-08-02T03:43:49.828Z,92.00
2022-08-02T03:44:49.849Z,104.00
2022-08-02T03:45:49.804Z,116.00
2022-08-02T03:46:49.791Z,124.00
2022-08-02T03:47:49.785Z,132.00
2022-08-02T03:48:49.805Z,144.00
2022-08-02T03:49:49.823Z,152.00
2022-08-02T03:50:49.760Z,164.00
2022-08-02T03:51:49.753Z,176.00
2022-08-02T03:52:49.751Z,188.00
2022-08-02T03:53:49.736Z,200.00
2022-08-02T03:54:49.762Z,216.00
2022-08-02T03:55:49.718Z,232.00
2022-08-02T03:56:49.718Z,248.00
2022-08-02T03:57:49.702Z,272.00
2022-08-02T03:58:49.692Z,292.00
2022-08-02T03:59:49.716Z,320.00
2022-08-02T04:00:49.717Z,348.00
2022-08-02T04:01:49.670Z,384.00
2022-08-02T04:02:49.667Z,416.00
2022-08-02T04:03:49.665Z,448.00
2022-08-02T04:04:49.671Z,472.00
2022-08-02T04:06:03.722Z,500.00
2022-08-02T04:06:50.620Z,524.00
2022-08-02T04:08:33.042Z,552.00
2022-08-02T04:08:50.609Z,576.00
2022-08-02T04:09:49.623Z,608.00
2022-08-02T04:10:49.584Z,644.00
2022-08-02T04:11:49.582Z,676.00
2022-08-02T04:12:49.573Z,704.00
2022-08-02T04:13:49.822Z,728.00
2022-08-02T04:14:49.585Z,756.00
2022-08-02T04:15:49.549Z,780.00
2022-08-02T04:16:49.541Z,800.00
2022-08-02T04:17:49.531Z,828.00
2022-08-02T04:18:49.525Z,856.00
2022-08-02T04:19:49.545Z,904.00
2022-08-02T04:20:49.498Z,952.00
2022-08-02T04:21:51.319Z,1000.00
2022-08-02T04:22:49.487Z,1032.00
2022-08-02T04:23:49.473Z,1064.00
2022-08-02T04:24:49.865Z,1072.00
2022-08-02T04:25:51.431Z,1068.00
2022-08-02T04:26:49.864Z,1048.00
2022-08-02T04:28:16.061Z,1028.00
2022-08-02T04:28:50.430Z,1008.00
2022-08-02T04:29:49.429Z,1012.00
2022-08-02T04:30:49.416Z,1052.00
2022-08-02T04:31:49.446Z,1116.00
2022-08-02T04:33:04.085Z,1192.00
2022-08-02T04:33:49.394Z,1284.00
2022-08-02T04:35:51.412Z,1408.00
2022-08-02T04:36:49.372Z,1428.00
2022-08-02T04:38:08.135Z,1388.00
2022-08-02T04:38:50.348Z,1340.00
2022-08-02T04:39:49.350Z,1340.00
2022-08-02T04:40:49.336Z,1380.00
2022-08-02T04:41:50.741Z,1412.00
2022-08-02T04:42:49.320Z,1416.00
2022-08-02T04:43:49.319Z,1404.00
2022-08-02T04:44:49.308Z,1284.00
2022-08-02T04:45:49.299Z,1172.00
2022-08-02T04:46:49.319Z,1104.00
2022-08-02T04:48:03.448Z,1068.00
2022-08-02T04:48:50.363Z,1040.00
2022-08-02T04:49:56.905Z,1032.00
2022-08-02T04:50:49.267Z,1044.00
2022-08-02T04:51:49.274Z,1068.00
2022-08-02T04:52:49.240Z,1060.00
2022-08-02T04:53:49.232Z,1052.00
2022-08-02T04:54:49.225Z,1032.00
2022-08-02T04:55:49.216Z,1036.00
2022-08-02T04:56:49.243Z,1060.00
2022-08-02T04:57:52.731Z,1100.00
2022-08-02T04:58:49.189Z,1180.00
2022-08-02T04:59:54.163Z,1304.00
2022-08-02T05:00:51.234Z,1428.00
2022-08-02T05:01:49.199Z,1568.00
2022-08-02T05:02:49.160Z,1528.00
2022-08-02T05:03:49.151Z,1444.00
2022-08-02T05:04:49.144Z,1452.00
2022-08-02T05:05:49.130Z,1524.00
2022-08-02T05:06:49.153Z,1572.00
2022-08-02T05:07:49.125Z,1576.00
2022-08-02T05:08:52.457Z,1644.00
2022-08-02T05:09:49.101Z,1600.00
2022-08-02T05:10:49.100Z,1664.00
2022-08-02T05:11:54.919Z,1768.00
2022-08-02T05:12:50.072Z,1932.00
2022-08-02T05:13:58.575Z,2464.00
2022-08-02T05:14:50.057Z,2824.00
2022-08-02T05:15:49.060Z,2920.00
2022-08-02T05:16:49.076Z,3108.00
2022-08-02T05:17:49.051Z,3208.00
2022-08-02T05:18:49.026Z,3340.00
2022-08-02T05:19:49.016Z,3500.00
2022-08-02T05:20:49.004Z,3648.00
2022-08-02T05:21:49.023Z,3704.00
2022-08-02T05:22:48.990Z,3724.00
2022-08-02T05:23:48.983Z,3768.00
2022-08-02T05:24:48.966Z,3796.00
2022-08-02T05:25:55.905Z,3780.00
2022-08-02T05:26:49.982Z,3772.00
2022-08-02T05:27:48.953Z,3824.00
2022-08-02T05:28:48.942Z,3940.00
2022-08-02T05:29:53.863Z,4044.00
2022-08-02T05:30:49.921Z,4000.00
2022-08-02T05:31:48.945Z,3996.00
2022-08-02T05:32:48.911Z,4072.00
2022-08-02T05:33:48.896Z,4096.00
2022-08-02T05:34:48.902Z,4136.00
2022-08-02T05:35:48.877Z,4200.00
2022-08-02T05:36:48.912Z,4308.00
2022-08-02T05:37:48.868Z,4400.00
2022-08-02T05:38:49.988Z,4452.00
2022-08-02T05:39:55.623Z,4464.00
2022-08-02T05:40:54.779Z,4196.00
2022-08-02T05:41:49.866Z,3796.00
2022-08-02T05:42:48.842Z,3268.00
2022-08-02T05:43:48.846Z,4184.00
2022-08-02T05:44:48.806Z,4160.00
2022-08-02T05:45:48.798Z,4168.00
2022-08-02T05:46:48.819Z,4056.00
2022-08-02T05:47:48.784Z,4156.00
2022-08-02T05:48:48.767Z,4412.00
2022-08-02T05:49:48.768Z,4376.00
2022-08-02T05:50:48.765Z,4248.00
2022-08-02T05:51:48.776Z,3668.00
2022-08-02T05:52:48.737Z,2664.00
2022-08-02T05:53:48.733Z,3188.00
2022-08-02T05:54:48.728Z,3228.00
2022-08-02T05:55:48.715Z,3556.00
2022-08-02T05:56:48.727Z,3876.00
2022-08-02T05:57:48.696Z,4140.00
2022-08-02T05:58:48.690Z,3120.00
2022-08-02T05:59:48.698Z,3604.00
2022-08-02T06:00:48.677Z,3696.00
2022-08-02T06:01:48.743Z,3560.00
2022-08-02T06:02:48.663Z,3368.00
2022-08-02T06:03:48.647Z,3304.00
2022-08-02T06:04:48.641Z,3100.00
2022-08-02T06:05:49.636Z,2984.00
2022-08-02T06:06:48.655Z,3496.00
2022-08-02T06:07:48.623Z,4072.00
2022-08-02T06:08:48.606Z,4380.00
2022-08-02T06:09:48.601Z,4796.00
2022-08-02T06:10:48.586Z,4952.00
2022-08-02T06:12:02.511Z,4888.00
2022-08-02T06:12:49.571Z,5240.00
2022-08-02T06:13:48.573Z,4992.00
2022-08-02T06:14:54.055Z,5280.00
2022-08-02T06:15:53.464Z,4756.00
2022-08-02T06:16:48.558Z,4468.00
2022-08-02T06:17:48.531Z,4564.00
2022-08-02T06:18:48.521Z,4760.00
2022-08-02T06:19:51.926Z,4712.00
2022-08-02T06:20:48.512Z,6052.00
2022-08-02T06:22:33.327Z,6780.00
2022-08-02T06:22:49.695Z,7232.00
2022-08-02T06:23:57.828Z,7660.00
2022-08-02T06:24:49.476Z,7612.00
2022-08-02T06:25:50.776Z,7556.00
2022-08-02T06:26:48.488Z,8972.00
2022-08-02T06:27:48.444Z,9220.00
2022-08-02T06:28:48.443Z,10776.00
2022-08-02T06:29:48.424Z,10652.00
2022-08-02T06:30:48.416Z,10816.00
2022-08-02T06:31:48.449Z,9460.00
2022-08-02T06:32:48.403Z,9816.00
2022-08-02T06:33:48.396Z,11396.00
2022-08-02T06:34:48.383Z,11664.00
2022-08-02T06:35:48.390Z,8096.00
2022-08-02T06:36:48.395Z,10552.00
2022-08-02T06:37:48.359Z,8016.00
2022-08-02T06:38:49.843Z,8860.00
2022-08-02T06:39:48.348Z,10852.00
2022-08-02T06:40:48.337Z,11708.00
2022-08-02T06:41:48.358Z,12352.00
2022-08-02T06:42:48.327Z,12636.00
2022-08-02T06:43:48.314Z,12468.00
2022-08-02T06:44:51.905Z,12624.00
2022-08-02T06:45:49.289Z,11372.00
2022-08-02T06:47:10.232Z,14592.00
2022-08-02T06:47:49.278Z,16576.00
2022-08-02T06:48:48.269Z,17504.00
2022-08-02T06:49:52.265Z,18016.00
2022-08-02T06:50:49.247Z,17920.00
2022-08-02T06:51:48.295Z,16640.00
2022-08-02T06:52:48.234Z,14716.00
2022-08-02T06:53:48.219Z,15508.00
2022-08-02T06:54:48.216Z,16264.00
2022-08-02T06:55:48.207Z,16768.00
2022-08-02T06:56:48.230Z,16672.00
2022-08-02T06:57:48.193Z,15300.00
2022-08-02T06:58:48.187Z,18432.00
2022-08-02T06:59:48.173Z,19392.00
2022-08-02T07:00:48.166Z,17728.00
2022-08-02T07:01:48.176Z,15032.00
2022-08-02T07:02:48.179Z,16200.00
2022-08-02T07:03:48.139Z,19392.00
2022-08-02T07:04:48.127Z,17568.00
2022-08-02T07:05:48.122Z,18560.00
2022-08-02T07:06:48.114Z,19264.00
2022-08-02T07:07:48.151Z,21216.00
2022-08-02T07:09:11.264Z,26656.00
2022-08-02T07:09:56.784Z,29536.00
2022-08-02T07:10:49.079Z,25472.00
2022-08-02T07:11:48.069Z,28384.00
2022-08-02T07:12:48.093Z,28832.00
2022-08-02T07:13:48.070Z,28352.00
2022-08-02T07:14:48.044Z,24864.00
2022-08-02T07:15:49.193Z,26112.00
2022-08-02T07:16:48.039Z,31072.00
2022-08-02T07:17:48.057Z,27936.00
2022-08-02T07:18:48.022Z,30720.00
2022-08-02T07:19:48.012Z,30496.00
2022-08-02T07:20:47.995Z,28640.00
2022-08-02T07:21:56.930Z,29696.00
2022-08-02T07:22:49.020Z,30848.00
2022-08-02T07:23:47.975Z,35520.00
2022-08-02T07:24:47.963Z,38976.00
2022-08-02T07:26:02.620Z,44320.00
2022-08-02T07:27:10.063Z,50496.00
2022-08-02T07:27:49.972Z,57696.00
2022-08-02T07:28:47.929Z,64736.00
2022-08-02T07:29:47.927Z,79616.00
2022-08-02T07:30:47.913Z,95360.00
2022-08-02T07:31:47.914Z,86496.00
2022-08-02T07:32:47.932Z,73792.00
2022-08-02T07:33:47.892Z,63136.00
2022-08-02T07:34:50.906Z,58816.00
2022-08-02T07:35:48.875Z,56864.00
2022-08-02T07:36:47.873Z,55264.00
2022-08-02T07:37:58.113Z,50176.00
2022-08-02T07:38:48.853Z,47936.00
2022-08-02T07:39:47.871Z,46592.00
2022-08-02T07:40:47.841Z,43392.00
2022-08-02T07:41:47.836Z,40128.00
2022-08-02T07:42:47.851Z,38368.00
2022-08-02T07:43:47.813Z,37888.00
2022-08-02T07:44:49.307Z,37952.00
2022-08-02T07:45:55.980Z,37696.00
2022-08-02T07:46:48.789Z,38624.00
2022-08-02T07:47:47.830Z,38496.00
2022-08-02T07:48:47.786Z,37312.00
2022-08-02T07:49:47.768Z,36608.00
2022-08-02T07:50:47.765Z,35616.00
2022-08-02T07:51:47.753Z,34560.00
2022-08-02T07:52:47.778Z,33952.00
2022-08-02T07:53:50.927Z,34816.00
2022-08-02T07:54:47.731Z,34624.00
2022-08-02T07:55:47.722Z,33216.00
2022-08-02T07:56:47.716Z,33184.00
2022-08-02T07:57:48.735Z,33920.00
2022-08-02T07:58:47.733Z,34336.00
2022-08-02T07:59:47.704Z,34016.00
2022-08-02T08:00:47.682Z,34208.00
2022-08-02T08:01:47.709Z,34624.00
2022-08-02T08:02:47.700Z,33728.00
2022-08-02T08:03:47.649Z,31776.00
2022-08-02T08:04:47.642Z,32096.00
2022-08-02T08:05:47.653Z,32864.00
2022-08-02T08:06:47.630Z,34016.00
2022-08-02T08:07:47.657Z,35296.00
2022-08-02T08:08:47.625Z,37504.00
2022-08-02T08:09:47.607Z,38976.00
2022-08-02T08:10:47.598Z,40032.00
2022-08-02T08:11:47.593Z,40160.00
2022-08-02T08:12:47.611Z,36640.00
2022-08-02T08:13:47.572Z,37376.00
2022-08-02T08:14:47.570Z,39040.00
2022-08-02T08:15:51.905Z,38144.00
2022-08-02T08:16:48.554Z,36320.00
2022-08-02T08:17:47.573Z,37120.00
2022-08-02T08:18:47.538Z,38432.00
2022-08-02T08:19:51.348Z,37376.00
2022-08-02T08:20:47.525Z,38304.00
2022-08-02T08:21:47.514Z,37408.00
2022-08-02T08:22:47.539Z,37024.00
2022-08-02T08:23:47.500Z,37728.00
2022-08-02T08:24:47.492Z,41472.00
2022-08-02T08:25:47.482Z,43296.00
2022-08-02T08:26:47.475Z,43680.00
2022-08-02T08:27:47.497Z,45120.00
2022-08-02T08:28:47.460Z,44288.00
2022-08-02T08:29:47.447Z,39808.00
2022-08-02T08:30:47.442Z,36576.00
2022-08-02T08:31:47.433Z,34816.00
2022-08-02T08:32:47.458Z,33888.00
2022-08-02T08:33:47.421Z,34912.00
2022-08-02T08:34:47.414Z,36352.00
2022-08-02T08:35:47.407Z,42016.00
2022-08-02T08:36:47.399Z,73984.00
2022-08-02T08:37:47.418Z,96064.00
2022-08-02T08:38:47.391Z,82528.00
2022-08-02T08:39:56.362Z,72768.00
2022-08-02T08:40:48.377Z,70752.00
2022-08-02T08:41:47.372Z,74016.00
2022-08-02T08:42:47.386Z,75616.00
2022-08-02T08:43:51.484Z,77728.00
2022-08-02T08:44:49.343Z,78368.00
2022-08-02T08:45:47.334Z,78944.00
2022-08-02T08:46:48.325Z,78496.00
2022-08-02T08:47:47.347Z,83360.00
2022-08-02T08:48:47.312Z,81536.00
2022-08-02T08:49:52.281Z,81280.00
2022-08-02T08:50:48.295Z,81600.00
2022-08-02T08:51:47.293Z,82176.00
2022-08-02T08:52:47.321Z,84352.00
2022-08-02T08:53:47.275Z,86272.00
2022-08-02T08:54:48.597Z,86336.00
2022-08-02T08:55:47.260Z,60608.00
2022-08-02T08:56:47.253Z,82528.00
2022-08-02T08:57:47.282Z,82432.00
2022-08-02T08:58:47.266Z,80480.00
2022-08-02T08:59:47.237Z,80128.00
2022-08-02T09:00:47.352Z,82464.00
2022-08-02T09:01:49.665Z,80416.00
2022-08-02T09:02:47.217Z,78752.00
2022-08-02T09:03:47.425Z,81184.00
2022-08-02T09:04:54.557Z,82400.00
2022-08-02T09:05:48.187Z,83264.00
2022-08-02T09:06:47.182Z,73728.00
2022-08-02T09:07:47.185Z,71904.00
2022-08-02T09:08:47.220Z,79136.00
2022-08-02T09:09:47.161Z,75872.00
2022-08-02T09:10:47.150Z,75072.00
2022-08-02T09:11:47.147Z,81408.00
2022-08-02T09:12:47.143Z,76000.00
2022-08-02T09:13:47.155Z,75904.00
2022-08-02T09:14:50.057Z,73696.00
2022-08-02T09:15:47.120Z,73824.00
2022-08-02T09:16:47.124Z,76512.00
2022-08-02T09:17:47.101Z,71520.00
2022-08-02T09:18:47.592Z,71744.00
2022-08-02T09:19:47.085Z,71520.00
2022-08-02T09:20:47.101Z,76448.00
2022-08-02T09:21:47.409Z,78528.00
2022-08-02T09:22:47.071Z,75712.00
2022-08-02T09:23:47.108Z,78592.00
2022-08-02T09:24:47.060Z,80032.00
2022-08-02T09:25:57.176Z,77536.00
2022-08-02T09:26:48.045Z,76864.00
2022-08-02T09:27:47.041Z,76768.00
2022-08-02T09:28:47.060Z,77344.00
2022-08-02T09:30:11.664Z,72864.00
2022-08-02T09:30:49.019Z,73056.00
2022-08-02T09:31:49.914Z,75936.00
2022-08-02T09:32:47.017Z,67680.00
2022-08-02T09:33:47.027Z,72768.00
2022-08-02T09:34:47.005Z,75584.00
2022-08-02T09:36:06.613Z,74528.00
2022-08-02T09:36:47.974Z,75680.00
2022-08-02T09:37:48.675Z,77760.00
2022-08-02T09:38:48.011Z,79648.00
2022-08-02T09:39:47.937Z,80416.00
2022-08-02T09:40:46.954Z,79936.00
2022-08-02T09:41:46.940Z,78560.00
2022-08-02T09:42:46.934Z,79232.00
2022-08-02T09:44:03.845Z,73632.00
2022-08-02T09:44:47.920Z,68640.00
2022-08-02T09:45:46.912Z,79488.00
2022-08-02T09:46:46.904Z,79104.00
2022-08-02T09:47:46.891Z,77280.00
2022-08-02T09:48:46.915Z,73600.00
2022-08-02T09:49:52.495Z,76352.00
2022-08-02T09:50:46.877Z,72864.00
2022-08-02T09:51:47.060Z,77632.00
2022-08-02T09:52:47.863Z,74752.00
2022-08-02T09:53:46.880Z,72064.00
2022-08-02T09:54:46.854Z,69248.00
2022-08-02T09:55:46.839Z,61760.00
2022-08-02T09:56:46.841Z,57056.00
2022-08-02T09:57:51.211Z,68928.00
2022-08-02T09:58:46.851Z,73440.00
2022-08-02T09:59:46.815Z,62944.00
2022-08-02T10:00:53.416Z,56224.00
2022-08-02T10:01:51.204Z,72032.00
2022-08-02T10:02:47.796Z,72064.00
2022-08-02T10:03:46.820Z,66528.00
2022-08-02T10:04:53.596Z,69952.00
2022-08-02T10:05:54.046Z,75360.00
2022-08-02T10:06:47.771Z,73312.00
2022-08-02T10:07:47.769Z,74240.00
2022-08-02T10:08:46.755Z,74656.00
2022-08-02T10:09:47.603Z,75392.00
2022-08-02T10:10:46.740Z,74944.00
2022-08-02T10:11:46.731Z,77248.00
2022-08-02T10:12:46.726Z,77504.00
2022-08-02T10:13:46.750Z,79584.00
2022-08-02T10:14:46.710Z,79424.00
2022-08-02T10:15:50.643Z,78688.00
2022-08-02T10:16:46.697Z,79264.00
2022-08-02T10:17:46.691Z,77760.00
2022-08-02T10:18:46.681Z,76864.00
2022-08-02T10:20:03.269Z,77824.00
2022-08-02T10:20:47.673Z,78560.00
2022-08-02T10:21:47.041Z,77216.00
2022-08-02T10:22:47.660Z,72608.00
2022-08-02T10:23:46.660Z,70784.00
2022-08-02T10:24:48.023Z,73632.00
2022-08-02T10:25:46.646Z,72512.00
2022-08-02T10:26:46.630Z,76544.00
2022-08-02T10:28:04.752Z,74496.00
2022-08-02T10:28:48.648Z,73248.00
2022-08-02T10:29:54.115Z,75776.00
2022-08-02T10:30:47.598Z,73056.00
2022-08-02T10:31:46.607Z,75488.00
2022-08-02T10:32:46.593Z,73664.00
2022-08-02T10:33:50.174Z,74464.00
2022-08-02T10:34:51.126Z,73696.00
2022-08-02T10:35:46.597Z,70208.00
2022-08-02T10:36:47.565Z,70144.00
2022-08-02T10:37:46.566Z,66784.00
2022-08-02T10:38:46.554Z,57472.00
2022-08-02T10:39:50.542Z,45184.00
2022-08-02T10:40:47.560Z,33344.00
2022-08-02T10:41:46.541Z,26080.00
2022-08-02T10:42:46.532Z,22944.00
2022-08-02T10:43:46.545Z,21184.00
2022-08-02T10:44:46.517Z,21344.00
2022-08-02T10:45:50.615Z,21056.00
2022-08-02T10:46:47.507Z,20800.00
2022-08-02T10:47:46.495Z,20448.00
2022-08-02T10:48:47.514Z,19136.00
2022-08-02T10:49:46.535Z,20000.00
2022-08-02T10:50:46.477Z,20064.00
2022-08-02T10:51:46.483Z,20032.00
2022-08-02T10:52:46.464Z,20032.00
2022-08-02T10:53:47.478Z,20352.00
2022-08-02T10:54:46.448Z,20352.00
2022-08-02T10:55:46.481Z,20320.00
2022-08-02T10:56:46.434Z,19744.00
2022-08-02T10:57:48.773Z,19904.00
2022-08-02T10:58:47.451Z,19872.00
2022-08-02T10:59:46.408Z,19008.00
2022-08-02T11:00:46.469Z,19520.00
2022-08-02T11:01:46.487Z,19904.00
2022-08-02T11:02:46.390Z,19904.00
2022-08-02T11:03:46.409Z,19840.00
2022-08-02T11:04:46.378Z,19808.00
2022-08-02T11:05:46.368Z,19712.00
2022-08-02T11:06:46.363Z,19456.00
2022-08-02T11:07:49.377Z,18912.00
2022-08-02T11:08:46.387Z,19168.00
2022-08-02T11:09:46.347Z,19168.00
2022-08-02T11:10:46.333Z,19200.00
2022-08-02T11:11:53.688Z,18848.00
2022-08-02T11:12:47.321Z,18560.00
2022-08-02T11:13:46.349Z,18592.00
2022-08-02T11:14:46.464Z,18592.00
2022-08-02T11:15:47.215Z,18848.00
2022-08-02T11:16:46.297Z,18848.00
2022-08-02T11:17:46.297Z,18720.00
2022-08-02T11:18:46.317Z,19136.00
2022-08-02T11:19:46.279Z,19136.00
2022-08-02T11:20:46.268Z,18720.00
2022-08-02T11:21:47.933Z,18880.00
2022-08-02T11:22:47.265Z,19136.00
2022-08-02T11:23:46.326Z,18784.00
2022-08-02T11:24:46.241Z,18944.00
2022-08-02T11:26:03.214Z,19168.00
2022-08-02T11:26:48.231Z,19296.00
2022-08-02T11:27:46.227Z,19584.00
2022-08-02T11:28:46.215Z,18528.00
2022-08-02T11:29:46.257Z,19200.00
2022-08-02T11:30:46.205Z,19072.00
2022-08-02T11:31:46.195Z,19264.00
2022-08-02T11:32:46.189Z,20000.00
2022-08-02T11:33:46.192Z,20096.00
2022-08-02T11:34:46.233Z,19936.00
2022-08-02T11:35:46.175Z,19648.00
2022-08-02T11:36:46.168Z,19520.00
2022-08-02T11:37:46.148Z,19744.00
2022-08-02T11:38:46.157Z,20096.00
2022-08-02T11:39:46.167Z,20128.00
2022-08-02T11:40:46.138Z,18912.00
2022-08-02T11:41:47.708Z,20192.00
2022-08-02T11:42:46.120Z,19968.00
2022-08-02T11:43:46.113Z,19488.00
2022-08-02T11:44:46.138Z,19328.00
2022-08-02T11:45:46.106Z,19808.00
2022-08-02T11:46:46.095Z,19840.00
2022-08-02T11:47:46.088Z,19776.00
2022-08-02T11:48:46.082Z,19776.00
2022-08-02T11:49:46.172Z,19648.00
2022-08-02T11:50:46.069Z,19712.00
2022-08-02T11:51:46.072Z,19776.00
2022-08-02T11:52:46.050Z,19808.00
2022-08-02T11:53:46.068Z,19808.00
2022-08-02T11:54:46.065Z,19776.00
2022-08-02T11:55:46.030Z,19872.00
2022-08-02T11:56:46.037Z,19872.00
2022-08-02T11:58:04.509Z,19968.00
2022-08-02T11:58:48.017Z,20128.00
2022-08-02T11:59:46.039Z,20000.00
2022-08-02T12:00:46.011Z,19584.00
2022-08-02T12:01:46.616Z,19200.00
2022-08-02T12:02:47.029Z,20224.00
2022-08-02T12:03:46.068Z,19904.00
2022-08-02T12:04:45.999Z,19808.00
2022-08-02T12:06:04.435Z,19712.00
2022-08-02T12:06:47.959Z,20320.00
2022-08-02T12:07:46.434Z,20608.00
2022-08-02T12:08:54.704Z,20928.00
2022-08-02T12:09:46.982Z,21280.00
2022-08-02T12:10:45.944Z,21504.00
2022-08-02T12:11:45.928Z,21728.00
2022-08-02T12:12:45.932Z,21184.00
2022-08-02T12:13:56.444Z,21120.00
2022-08-02T12:14:46.942Z,20032.00
2022-08-02T12:15:45.909Z,19040.00
2022-08-02T12:16:45.910Z,18656.00
2022-08-02T12:17:47.891Z,18368.00